createdAt,value
2022-08-21T00:04:48.355Z,16.3
2022-08-21T00:10:19.560Z,16.3
2022-08-21T00:16:02.539Z,16.3
2022-08-21T00:21:27.202Z,16.2
2022-08-21T00:26:53.430Z,16.2
2022-08-21T00:32:40.659Z,16.2
2022-08-21T00:38:17.793Z,16.2
2022-08-21T00:49:58.898Z,16.1
2022-08-21T00:55:49.117Z,16.1
2022-08-21T01:01:35.473Z,16.1
2022-08-21T01:07:14.498Z,16.1
2022-08-21T01:12:58.175Z,16.1
2022-08-21T01:18:18.717Z,16
2022-08-21T01:24:02.705Z,16
2022-08-21T01:29:42.479Z,15.9
2022-08-21T01:35:23.903Z,15.9
2022-08-21T01:41:02.475Z,15.9
2022-08-21T01:46:47.428Z,15.9
2022-08-21T02:03:03.940Z,15.8
2022-08-21T02:08:58.715Z,15.8
2022-08-21T02:14:28.665Z,15.8
2022-08-21T02:20:35.226Z,15.7
2022-08-21T02:26:22.150Z,15.6
2022-08-21T02:31:42.898Z,15.6
2022-08-21T02:37:21.268Z,15.5
2022-08-21T02:42:53.459Z,15.5
2022-08-21T02:48:31.731Z,15.4
2022-08-21T02:54:08.189Z,15.4
2022-08-21T02:59:45.018Z,15.4
2022-08-21T03:05:05.952Z,15.3
2022-08-21T03:10:34.165Z,15.3
2022-08-21T03:16:14.748Z,15.2
2022-08-21T03:22:02.146Z,15.1
2022-08-21T03:28:07.290Z,15.1
2022-08-21T03:33:31.887Z,15.1
2022-08-21T03:38:53.118Z,15.1
2022-08-21T03:44:29.707Z,15.1
2022-08-21T04:06:13.808Z,15.2
2022-08-21T04:11:56.850Z,15.3
2022-08-21T04:17:39.861Z,15.3
2022-08-21T04:23:40.070Z,15.4
2022-08-21T04:29:17.874Z,15.4
2022-08-21T04:34:59.540Z,15.4
2022-08-21T04:40:46.221Z,15.5
2022-08-21T04:46:30.837Z,15.6
2022-08-21T04:52:28.230Z,15.6
2022-08-21T04:58:26.532Z,15.7
2022-08-21T05:04:03.283Z,15.8
2022-08-21T05:09:26.709Z,15.9
2022-08-21T05:14:38.309Z,16
2022-08-21T05:20:27.817Z,16.1
2022-08-21T05:26:06.531Z,16.3
2022-08-21T05:31:57.406Z,16.5
2022-08-21T05:37:45.565Z,16.6
2022-08-21T05:44:10.146Z,16.9
2022-08-21T05:50:12.733Z,17.2
2022-08-21T05:56:02.542Z,17.4
2022-08-21T06:01:43.870Z,17.6
2022-08-21T06:07:38.774Z,17.8
2022-08-21T06:13:19.006Z,17.8
2022-08-21T06:18:59.515Z,17.8
2022-08-21T06:24:44.285Z,18.1
2022-08-21T06:30:22.611Z,18.6
2022-08-21T06:36:06.535Z,19.4
2022-08-21T06:53:35.587Z,22.2
2022-08-21T06:59:19.989Z,24.4
2022-08-21T07:04:59.177Z,27.3
2022-08-21T07:10:39.495Z,30.1
2022-08-21T07:16:25.721Z,32.4
2022-08-21T07:22:04.379Z,38.1
2022-08-21T07:27:46.275Z,39.1
2022-08-21T07:33:24.403Z,38.6
2022-08-21T07:39:11.382Z,38.3
2022-08-21T07:44:56.595Z,37.8
2022-08-21T07:50:50.482Z,37.3
2022-08-21T07:56:37.155Z,36.8
2022-08-21T08:02:14.133Z,36.4
2022-08-21T08:07:59.029Z,42.9
2022-08-21T08:13:36.181Z,43.9
2022-08-21T08:19:18.839Z,44.7
2022-08-21T08:25:14.322Z,45.4
2022-08-21T08:31:11.249Z,45.9
2022-08-21T08:37:03.380Z,46.8
2022-08-21T08:43:30.744Z,47.4
2022-08-21T08:49:09.569Z,48.1
2022-08-21T08:54:49.627Z,47.8
2022-08-21T09:00:16.113Z,47.9
2022-08-21T09:05:56.704Z,48.4
2022-08-21T09:11:33.221Z,48.6
2022-08-21T09:16:54.981Z,49.1
2022-08-21T09:22:39.987Z,49.1
2022-08-21T09:28:16.696Z,49.7
2022-08-21T09:34:05.067Z,49.6
2022-08-21T09:39:46.918Z,49.4
2022-08-21T09:45:09.768Z,49.3
2022-08-21T09:50:58.927Z,49.8
2022-08-21T09:56:40.839Z,49.6
2022-08-21T10:02:28.151Z,49.5
2022-08-21T10:08:10.486Z,48.9
2022-08-21T10:13:54.989Z,48.5
2022-08-21T10:19:32.155Z,48.6
2022-08-21T10:25:25.241Z,50.8
2022-08-21T10:31:41.141Z,51.1
2022-08-21T10:37:29.424Z,51.4
2022-08-21T10:49:25.527Z,52.9
2022-08-21T10:55:13.764Z,53.4
2022-08-21T11:00:57.256Z,53.5
2022-08-21T11:06:34.079Z,54.1
2022-08-21T11:12:46.974Z,54.8
2022-08-21T11:18:40.677Z,55.4
2022-08-21T11:24:06.412Z,55.8
2022-08-21T11:29:54.520Z,56.3
2022-08-21T11:35:16.693Z,56.6
2022-08-21T11:41:01.867Z,56.8
2022-08-21T11:46:39.940Z,57.4
2022-08-21T11:52:36.782Z,57.6
2022-08-21T11:58:00.082Z,57.3
2022-08-21T12:03:38.895Z,56.8
2022-08-21T12:09:31.693Z,56.3
2022-08-21T12:15:24.125Z,56
2022-08-21T12:21:06.776Z,55.6
2022-08-21T12:26:53.486Z,55.1
2022-08-21T12:32:32.419Z,54.7
2022-08-21T12:38:22.009Z,54.3
2022-08-21T12:44:09.968Z,53.9
2022-08-21T12:49:35.669Z,53.4
2022-08-21T12:55:04.435Z,53.1
2022-08-21T13:00:42.296Z,52.6
2022-08-21T13:06:22.740Z,52.2
2022-08-21T13:12:32.394Z,51.7
2022-08-21T13:18:39.245Z,51.2
2022-08-21T13:25:00.273Z,50.8
2022-08-21T13:30:48.126Z,50.3
2022-08-21T13:36:30.044Z,50.1
2022-08-21T13:42:08.442Z,50
2022-08-21T13:47:52.273Z,49.8
2022-08-21T13:53:15.205Z,49.6
2022-08-21T13:58:52.673Z,49.4
2022-08-21T14:04:31.399Z,49
2022-08-21T14:10:14.286Z,48.9
2022-08-21T14:16:05.337Z,48.6
2022-08-21T14:21:57.046Z,48.4
2022-08-21T14:27:35.920Z,48.3
2022-08-21T14:33:39.318Z,48.3
2022-08-21T14:39:24.470Z,48.4
2022-08-21T14:45:00.612Z,48
2022-08-21T14:50:57.193Z,47.6
2022-08-21T14:56:48.943Z,47.3
2022-08-21T15:02:37.884Z,46.7
2022-08-21T15:08:23.447Z,46.3
2022-08-21T15:14:33.007Z,46.1
2022-08-21T15:20:10.483Z,45.9
2022-08-21T15:26:04.800Z,45.8
2022-08-21T15:31:51.061Z,45.4
2022-08-21T15:37:34.916Z,45.1
2022-08-21T15:43:29.671Z,44.8
2022-08-21T15:49:07.288Z,44.6
2022-08-21T15:54:51.493Z,44.3
2022-08-21T16:00:35.765Z,43.9
2022-08-21T16:06:15.377Z,43.7
2022-08-21T16:12:14.751Z,43.4
2022-08-21T16:17:54.601Z,43.1
2022-08-21T16:23:33.127Z,41.9
2022-08-21T16:29:26.555Z,40.6
2022-08-21T16:35:10.974Z,39.1
2022-08-21T16:40:49.411Z,37.8
2022-08-21T16:46:32.972Z,36.5
2022-08-21T16:52:18.182Z,35.3
2022-08-21T16:57:58.750Z,34.1
2022-08-21T17:03:37.210Z,33.1
2022-08-21T17:09:22.044Z,32.2
2022-08-21T17:15:21.782Z,31.3
2022-08-21T17:21:00.701Z,30.6
2022-08-21T17:26:38.491Z,30
2022-08-21T17:32:22.098Z,29.4
2022-08-21T17:38:01.810Z,28.8
2022-08-21T17:43:44.476Z,28.3
2022-08-21T17:49:25.328Z,27.7
2022-08-21T17:55:09.097Z,27.3
2022-08-21T18:00:52.847Z,26.8
2022-08-21T18:06:34.935Z,26.1
2022-08-21T18:12:21.355Z,25.4
2022-08-21T18:17:48.789Z,24.9
2022-08-21T18:23:43.664Z,24.4
2022-08-21T18:29:20.344Z,24.1
2022-08-21T18:35:14.395Z,23.6
2022-08-21T18:41:26.345Z,23.3
2022-08-21T18:47:13.926Z,22.9
